Time;durP1;ratioP1;P1;durP2;ratioP2;P2;SDS_P1;SDS_P2;PMS_P1;PMS_P2;Temp;Humidity;BMP_temperature;BMP_pressure;BME280_temperature;BME280_humidity;BME280_pressure;Samples;Min_cycle;Max_cycle;Signal;HPM_P1;HPM_P2
2021/10/14 00:00:59;;;;;;;;;;;9.30;99.90;;;;;;4917612;29;19927;-80
2021/10/14 00:03:51;;;;;;;;;;;9.20;99.90;;;;;;4918398;29;20544;-79
2021/10/14 00:06:45;;;;;;;;;;;9.30;99.90;;;;;;4919918;29;19927;-79
2021/10/14 00:09:37;;;;;;;;;;;9.30;99.90;;;;;;4902195;29;19927;-79
2021/10/14 00:12:29;;;;;;;;;;;9.30;99.90;;;;;;4920509;29;19927;-80
2021/10/14 00:15:17;;;;;;;;;;;9.30;99.90;;;;;;4913025;29;19928;-79
2021/10/14 00:18:06;;;;;;;;;;;9.30;99.90;;;;;;4930199;29;20147;-80
2021/10/14 00:20:58;;;;;;;;;;;9.30;99.90;;;;;;4918083;29;19928;-79
2021/10/14 00:23:49;;;;;;;;;;;9.30;99.90;;;;;;4915836;29;19935;-79
2021/10/14 00:26:40;;;;;;;;;;;9.30;99.90;;;;;;4915845;29;20042;-79
2021/10/14 00:29:34;;;;;;;;;;;9.30;99.90;;;;;;4916478;29;19935;-79
2021/10/14 00:32:23;;;;;;;;;;;9.30;99.90;;;;;;4913957;29;19927;-80
2021/10/14 00:35:12;;;;;;;;;;;9.30;99.90;;;;;;4927591;29;19931;-80
2021/10/14 00:38:00;;;;;;;;;;;9.30;99.90;;;;;;4915519;29;19927;-79
2021/10/14 00:41:15;;;;;;;;;;;9.30;99.90;;;;;;4915743;29;19997;-79
2021/10/14 00:44:07;;;;;;;;;;;9.30;99.90;;;;;;4915561;29;19927;-79
2021/10/14 00:46:57;;;;;;;;;;;9.20;99.90;;;;;;4911398;29;19928;-79
2021/10/14 00:49:48;;;;;;;;;;;9.10;99.90;;;;;;4916736;29;19937;-79
2021/10/14 00:52:38;;;;;;;;;;;9.20;99.90;;;;;;4913014;29;19939;-79
2021/10/14 00:55:29;;;;;;;;;;;9.20;99.90;;;;;;4914404;29;19935;-79
2021/10/14 00:58:18;;;;;;;;;;;9.10;99.90;;;;;;4916748;29;19942;-79
2021/10/14 01:01:09;;;;;;;;;;;9.10;99.90;;;;;;4921047;29;19942;-79
2021/10/14 01:03:58;;;;;;;;;;;9.10;99.90;;;;;;4914436;29;20018;-80
2021/10/14 01:06:48;;;;;;;;;;;9.10;99.90;;;;;;4916691;29;19937;-79
2021/10/14 01:09:40;;;;;;;;;;;9.10;99.90;;;;;;4916402;29;20416;-79
2021/10/14 01:12:30;;;;;;;;;;;9.10;99.90;;;;;;4916113;29;19946;-79
2021/10/14 01:15:20;;;;;;;;;;;9.10;99.90;;;;;;4911415;29;19934;-79
2021/10/14 01:18:10;;;;;;;;;;;9.10;99.90;;;;;;4916012;29;19942;-79
2021/10/14 01:21:01;;;;;;;;;;;9.10;99.90;;;;;;4927550;29;19934;-79
2021/10/14 01:23:54;;;;;;;;;;;9.10;99.90;;;;;;4915659;29;19933;-79
2021/10/14 01:26:43;;;;;;;;;;;9.20;99.90;;;;;;4915127;29;20332;-79
2021/10/14 01:29:33;;;;;;;;;;;9.10;99.90;;;;;;4915787;29;19927;-79
2021/10/14 01:32:23;;;;;;;;;;;9.10;99.90;;;;;;4910028;29;20280;-79
2021/10/14 01:35:12;;;;;;;;;;;9.10;99.90;;;;;;4915524;29;20384;-79
2021/10/14 01:41:14;;;;;;;;;;;9.20;99.90;;;;;;4915978;29;19931;-79
2021/10/14 01:44:03;;;;;;;;;;;9.10;99.90;;;;;;4919249;29;19931;-79
2021/10/14 01:46:52;;;;;;;;;;;9.10;99.90;;;;;;4913102;29;19927;-79
2021/10/14 01:49:41;;;;;;;;;;;9.20;99.90;;;;;;4918368;29;20026;-79
2021/10/14 01:52:30;;;;;;;;;;;9.20;99.90;;;;;;4918763;29;19934;-79
2021/10/14 01:55:20;;;;;;;;;;;9.20;99.90;;;;;;4918861;29;19927;-79
2021/10/14 01:58:09;;;;;;;;;;;9.20;99.90;;;;;;4918156;29;19937;-79
2021/10/14 02:00:58;;;;;;;;;;;9.20;99.90;;;;;;4913047;29;19934;-79
2021/10/14 02:03:47;;;;;;;;;;;9.10;99.90;;;;;;4905486;29;19927;-79
2021/10/14 02:06:36;;;;;;;;;;;9.10;99.90;;;;;;4916226;29;20452;-79
2021/10/14 02:09:25;;;;;;;;;;;9.10;99.90;;;;;;4918323;29;19934;-79
2021/10/14 02:12:19;;;;;;;;;;;9.10;99.90;;;;;;4929272;29;20025;-79
2021/10/14 02:18:21;;;;;;;;;;;9.10;99.90;;;;;;4917567;29;19927;-79
2021/10/14 02:21:10;;;;;;;;;;;9.00;99.90;;;;;;4918901;29;19957;-79
2021/10/14 02:24:01;;;;;;;;;;;9.00;99.90;;;;;;4916844;29;19994;-79
2021/10/14 02:26:50;;;;;;;;;;;9.00;99.90;;;;;;4919139;29;19963;-79
2021/10/14 02:29:43;;;;;;;;;;;9.10;99.90;;;;;;4918222;29;19934;-79
2021/10/14 02:32:32;;;;;;;;;;;9.00;99.90;;;;;;4915393;29;20008;-80
2021/10/14 02:35:22;;;;;;;;;;;9.00;99.90;;;;;;4917880;29;20419;-79
2021/10/14 02:38:11;;;;;;;;;;;9.00;99.90;;;;;;4931993;28;19940;-79
2021/10/14 02:41:02;;;;;;;;;;;9.00;99.90;;;;;;4904129;29;19927;-79
2021/10/14 02:43:56;;;;;;;;;;;9.00;99.90;;;;;;4915522;29;19927;-79
2021/10/14 02:46:46;;;;;;;;;;;9.00;99.90;;;;;;4924322;29;19927;-79
2021/10/14 02:49:36;;;;;;;;;;;8.90;99.90;;;;;;4915409;29;19933;-79
2021/10/14 02:52:24;;;;;;;;;;;9.00;99.90;;;;;;4900841;29;19934;-79
2021/10/14 02:55:13;;;;;;;;;;;9.00;99.90;;;;;;4916838;29;19927;-79
2021/10/14 02:58:02;;;;;;;;;;;9.00;99.90;;;;;;4902108;29;19927;-79
2021/10/14 03:00:50;;;;;;;;;;;9.00;99.90;;;;;;4911563;29;20426;-79
2021/10/14 03:03:42;;;;;;;;;;;9.00;99.90;;;;;;4945189;23;19931;-78
2021/10/14 03:06:31;;;;;;;;;;;9.00;99.90;;;;;;4914535;29;19927;-78
2021/10/14 03:09:23;;;;;;;;;;;9.00;99.90;;;;;;4936399;23;20561;-77
2021/10/14 03:12:12;;;;;;;;;;;9.10;99.90;;;;;;4928500;29;19973;-76
2021/10/14 03:15:04;;;;;;;;;;;9.10;99.90;;;;;;4925793;29;19931;-76
2021/10/14 03:18:09;;;;;;;;;;;9.10;99.90;;;;;;4956775;29;19951;-81
2021/10/14 03:21:07;;;;;;;;;;;9.10;99.90;;;;;;4950053;23;20413;-70
2021/10/14 03:24:20;;;;;;;;;;;9.10;99.90;;;;;;4911218;29;19934;-69
2021/10/14 03:27:09;;;;;;;;;;;9.20;99.90;;;;;;4908684;29;20347;-69
2021/10/14 03:29:58;;;;;;;;;;;9.20;99.90;;;;;;4915556;28;20324;-68
2021/10/14 03:32:47;;;;;;;;;;;9.20;99.90;;;;;;4910446;29;19985;-68
2021/10/14 03:35:35;;;;;;;;;;;9.20;99.90;;;;;;4915868;28;20013;-69
2021/10/14 03:38:25;;;;;;;;;;;9.20;99.90;;;;;;4913768;29;19950;-69
2021/10/14 03:41:14;;;;;;;;;;;9.20;99.90;;;;;;4915045;29;19927;-69
2021/10/14 03:44:06;;;;;;;;;;;9.20;99.90;;;;;;4910269;29;19927;-69
2021/10/14 03:46:55;;;;;;;;;;;9.10;99.90;;;;;;4899176;29;20375;-69
2021/10/14 03:49:44;;;;;;;;;;;9.10;99.90;;;;;;4900831;29;19927;-69
2021/10/14 03:52:33;;;;;;;;;;;9.10;99.90;;;;;;4902625;29;19927;-68
2021/10/14 03:55:22;;;;;;;;;;;9.10;99.90;;;;;;4900963;29;20030;-68
2021/10/14 03:58:11;;;;;;;;;;;9.10;99.90;;;;;;4916538;29;19927;-69
2021/10/14 04:01:01;;;;;;;;;;;9.20;99.90;;;;;;4911263;28;19994;-69
2021/10/14 04:03:49;;;;;;;;;;;9.20;99.90;;;;;;4898367;29;19935;-69
2021/10/14 04:06:40;;;;;;;;;;;9.20;99.90;;;;;;4902200;29;19994;-68
2021/10/14 04:09:29;;;;;;;;;;;9.20;99.90;;;;;;4916653;29;19931;-68
2021/10/14 04:12:20;;;;;;;;;;;9.20;99.90;;;;;;4899560;29;19931;-69
2021/10/14 04:15:10;;;;;;;;;;;9.20;99.90;;;;;;4907418;29;20056;-68
2021/10/14 04:17:59;;;;;;;;;;;9.20;99.90;;;;;;4915054;29;19927;-70
2021/10/14 04:20:47;;;;;;;;;;;9.10;99.90;;;;;;4902607;29;19927;-69
2021/10/14 04:24:02;;;;;;;;;;;9.10;99.90;;;;;;4916031;28;19927;-69
2021/10/14 04:26:50;;;;;;;;;;;9.10;99.90;;;;;;4900027;29;19939;-69
2021/10/14 04:29:40;;;;;;;;;;;9.10;99.90;;;;;;4908744;29;19938;-69
2021/10/14 04:32:30;;;;;;;;;;;9.10;99.90;;;;;;4915447;28;19971;-68
2021/10/14 04:35:19;;;;;;;;;;;9.10;99.90;;;;;;4901105;29;19927;-69
2021/10/14 04:38:09;;;;;;;;;;;9.10;99.90;;;;;;4915114;28;19927;-68
2021/10/14 04:40:59;;;;;;;;;;;9.10;99.90;;;;;;4901727;29;19953;-70
2021/10/14 04:43:47;;;;;;;;;;;9.10;99.90;;;;;;4910992;29;19931;-69
2021/10/14 04:46:37;;;;;;;;;;;9.20;99.90;;;;;;4903027;29;20378;-71
2021/10/14 04:49:26;;;;;;;;;;;9.20;99.90;;;;;;4915533;29;19931;-69
2021/10/14 04:52:15;;;;;;;;;;;9.20;99.90;;;;;;4910845;29;20286;-67
2021/10/14 04:55:04;;;;;;;;;;;9.20;99.90;;;;;;4916540;29;20049;-68
2021/10/14 04:57:53;;;;;;;;;;;9.20;99.90;;;;;;4915112;29;19949;-68
2021/10/14 05:00:41;;;;;;;;;;;9.30;99.90;;;;;;4891967;29;19947;-68
2021/10/14 05:03:32;;;;;;;;;;;9.40;99.90;;;;;;4912091;29;19934;-69
2021/10/14 05:06:20;;;;;;;;;;;9.40;99.90;;;;;;4911105;28;19927;-68
2021/10/14 05:09:09;;;;;;;;;;;9.30;99.90;;;;;;4914284;29;19931;-67
2021/10/14 05:11:59;;;;;;;;;;;9.30;99.90;;;;;;4911715;28;19934;-67
2021/10/14 05:14:48;;;;;;;;;;;9.30;99.90;;;;;;4913557;29;19942;-67
2021/10/14 05:17:37;;;;;;;;;;;9.30;99.90;;;;;;4915431;29;20454;-67
2021/10/14 05:20:27;;;;;;;;;;;9.30;99.90;;;;;;4914012;29;19927;-67
2021/10/14 05:23:16;;;;;;;;;;;9.30;99.90;;;;;;4917741;29;20050;-68
2021/10/14 05:26:08;;;;;;;;;;;9.20;99.90;;;;;;4914992;29;19966;-68
2021/10/14 05:28:57;;;;;;;;;;;9.20;99.90;;;;;;4913863;29;19937;-68
2021/10/14 05:31:47;;;;;;;;;;;9.20;99.90;;;;;;4907077;29;20351;-67
2021/10/14 05:34:36;;;;;;;;;;;9.10;99.90;;;;;;4900934;29;19967;-67
2021/10/14 05:37:26;;;;;;;;;;;9.10;99.90;;;;;;4913120;29;19938;-68
2021/10/14 05:40:15;;;;;;;;;;;9.20;99.90;;;;;;4918859;28;19927;-67
2021/10/14 05:43:04;;;;;;;;;;;9.20;99.90;;;;;;4917277;29;20311;-67
2021/10/14 05:45:53;;;;;;;;;;;9.10;99.90;;;;;;4915863;28;20240;-68
2021/10/14 05:48:42;;;;;;;;;;;9.20;99.90;;;;;;4917402;29;19927;-67
2021/10/14 05:51:32;;;;;;;;;;;9.20;99.90;;;;;;4913404;29;20068;-68
2021/10/14 05:54:22;;;;;;;;;;;9.20;99.90;;;;;;4918527;28;20340;-67
2021/10/14 05:57:11;;;;;;;;;;;9.30;99.90;;;;;;4917368;29;19931;-67
2021/10/14 06:00:00;;;;;;;;;;;9.40;99.90;;;;;;4915257;29;19934;-67
2021/10/14 06:02:51;;;;;;;;;;;9.40;99.90;;;;;;4915314;29;19946;-67
2021/10/14 06:05:41;;;;;;;;;;;9.50;99.90;;;;;;4916269;29;20396;-69
2021/10/14 06:08:29;;;;;;;;;;;9.50;99.90;;;;;;4917066;29;19954;-67
2021/10/14 06:11:43;;;;;;;;;;;9.50;99.90;;;;;;4917496;29;19931;-67
2021/10/14 06:14:33;;;;;;;;;;;9.50;99.90;;;;;;4923422;29;20356;-68
2021/10/14 06:17:22;;;;;;;;;;;9.50;99.90;;;;;;4910271;29;19984;-68
2021/10/14 06:20:13;;;;;;;;;;;9.60;99.90;;;;;;4915596;29;22448;-68
2021/10/14 06:23:02;;;;;;;;;;;9.60;99.90;;;;;;4916700;29;19934;-67
2021/10/14 06:25:51;;;;;;;;;;;9.60;99.90;;;;;;4910438;29;20374;-68
2021/10/14 06:28:40;;;;;;;;;;;9.60;99.90;;;;;;4916636;29;20280;-69
2021/10/14 06:31:30;;;;;;;;;;;9.60;99.90;;;;;;4904516;29;19928;-67
2021/10/14 06:34:21;;;;;;;;;;;9.70;99.90;;;;;;4915096;29;19934;-67
2021/10/14 06:37:10;;;;;;;;;;;9.60;99.90;;;;;;4915903;29;19934;-69
2021/10/14 06:39:59;;;;;;;;;;;9.60;99.90;;;;;;4916949;29;20244;-67
2021/10/14 06:42:48;;;;;;;;;;;9.70;99.90;;;;;;4916048;29;19927;-68
2021/10/14 06:45:36;;;;;;;;;;;9.70;99.90;;;;;;4910214;28;20022;-69
2021/10/14 06:48:52;;;;;;;;;;;9.70;99.90;;;;;;4911978;29;19927;-68
2021/10/14 06:51:41;;;;;;;;;;;9.70;99.90;;;;;;4917287;28;19934;-68
2021/10/14 06:54:30;;;;;;;;;;;9.80;99.90;;;;;;4916774;29;19943;-67
2021/10/14 06:57:19;;;;;;;;;;;9.80;99.90;;;;;;4916486;29;19975;-68
2021/10/14 07:00:09;;;;;;;;;;;9.70;99.90;;;;;;4904932;29;19927;-67
2021/10/14 07:02:57;;;;;;;;;;;9.70;99.90;;;;;;4914938;29;19949;-68
2021/10/14 07:05:48;;;;;;;;;;;9.70;99.90;;;;;;4910181;29;19931;-68
2021/10/14 07:08:37;;;;;;;;;;;9.70;99.90;;;;;;4914396;29;19939;-67
2021/10/14 07:14:39;;;;;;;;;;;9.70;99.90;;;;;;4918672;29;20466;-67
2021/10/14 07:17:29;;;;;;;;;;;9.70;99.90;;;;;;4916154;29;19931;-69
2021/10/14 07:20:18;;;;;;;;;;;9.60;99.90;;;;;;4914684;29;19931;-68
2021/10/14 07:23:10;;;;;;;;;;;9.60;99.90;;;;;;4897010;29;20021;-68
2021/10/14 07:25:59;;;;;;;;;;;9.60;99.90;;;;;;4896572;29;19928;-67
2021/10/14 07:28:56;;;;;;;;;;;9.60;99.90;;;;;;4899793;29;19937;-68
2021/10/14 07:31:45;;;;;;;;;;;9.60;99.90;;;;;;4895114;29;19927;-67
2021/10/14 07:34:35;;;;;;;;;;;9.60;99.90;;;;;;4910527;29;19934;-68
2021/10/14 07:37:24;;;;;;;;;;;9.60;99.90;;;;;;4912941;29;19963;-68
2021/10/14 07:40:15;;;;;;;;;;;9.60;99.90;;;;;;4915295;29;19931;-69
2021/10/14 07:43:04;;;;;;;;;;;9.60;99.90;;;;;;4901731;29;20033;-68
2021/10/14 07:45:55;;;;;;;;;;;9.60;99.90;;;;;;4894185;29;19927;-67
2021/10/14 07:48:46;;;;;;;;;;;9.60;99.90;;;;;;4910720;29;20268;-67
2021/10/14 07:51:35;;;;;;;;;;;9.60;99.90;;;;;;4913938;29;19927;-68
2021/10/14 07:54:24;;;;;;;;;;;9.60;99.90;;;;;;4902730;29;20335;-67
2021/10/14 07:57:15;;;;;;;;;;;9.60;99.90;;;;;;4901520;29;19935;-67
2021/10/14 08:00:05;;;;;;;;;;;9.60;99.90;;;;;;4909157;29;20023;-68
2021/10/14 08:02:58;;;;;;;;;;;9.70;99.90;;;;;;4914784;29;19928;-69
2021/10/14 08:05:47;;;;;;;;;;;9.70;99.90;;;;;;4896411;29;19931;-68
2021/10/14 08:08:37;;;;;;;;;;;9.70;99.90;;;;;;4911533;29;19935;-68
2021/10/14 08:14:41;;;;;;;;;;;9.70;99.90;;;;;;4922732;28;19931;-69
2021/10/14 08:17:31;;;;;;;;;;;9.70;99.90;;;;;;4901909;29;19949;-68
2021/10/14 08:20:20;;;;;;;;;;;9.70;99.90;;;;;;4912266;29;19975;-68
2021/10/14 08:23:09;;;;;;;;;;;9.80;99.90;;;;;;4910820;29;19975;-67
2021/10/14 08:25:58;;;;;;;;;;;9.80;99.90;;;;;;4912984;29;20284;-69
2021/10/14 08:32:02;;;;;;;;;;;9.80;99.90;;;;;;4893561;29;20391;-68
2021/10/14 08:34:52;;;;;;;;;;;9.90;99.90;;;;;;4899635;29;19927;-68
2021/10/14 08:37:40;;;;;;;;;;;9.90;99.90;;;;;;4914580;29;19927;-68
2021/10/14 08:40:30;;;;;;;;;;;9.90;99.90;;;;;;4910467;29;19983;-68
2021/10/14 08:43:20;;;;;;;;;;;9.90;99.90;;;;;;4914810;29;19934;-68
2021/10/14 08:46:10;;;;;;;;;;;10.00;99.90;;;;;;4902434;29;20014;-68
2021/10/14 08:52:15;;;;;;;;;;;9.90;99.90;;;;;;4913456;29;19927;-68
2021/10/14 08:55:04;;;;;;;;;;;9.90;99.90;;;;;;4904839;29;20288;-69
2021/10/14 08:57:54;;;;;;;;;;;9.90;99.90;;;;;;4914956;28;19944;-67
2021/10/14 09:01:03;;;;;;;;;;;9.90;99.90;;;;;;4892416;29;20368;-68
2021/10/14 09:03:55;;;;;;;;;;;9.90;99.90;;;;;;4912008;29;19938;-69
2021/10/14 09:06:46;;;;;;;;;;;9.90;99.90;;;;;;4909802;29;19941;-68
2021/10/14 09:09:36;;;;;;;;;;;9.90;99.90;;;;;;4899840;29;19935;-69
2021/10/14 09:12:25;;;;;;;;;;;9.90;99.90;;;;;;4913803;29;20049;-67
2021/10/14 09:15:16;;;;;;;;;;;9.80;99.90;;;;;;4910683;29;19942;-69
2021/10/14 09:18:31;;;;;;;;;;;9.90;99.90;;;;;;4914618;28;19934;-68
2021/10/14 09:21:24;;;;;;;;;;;9.90;99.90;;;;;;4902131;29;19934;-68
2021/10/14 09:24:27;;;;;;;;;;;9.90;99.90;;;;;;4912371;28;19931;-68
2021/10/14 09:27:17;;;;;;;;;;;9.90;99.90;;;;;;4908508;29;19954;-68
2021/10/14 09:30:06;;;;;;;;;;;9.90;99.90;;;;;;4893177;29;20395;-67
2021/10/14 09:32:55;;;;;;;;;;;9.90;99.90;;;;;;4912097;29;19931;-67
2021/10/14 09:35:43;;;;;;;;;;;9.90;99.90;;;;;;4914285;29;19927;-68
2021/10/14 09:38:33;;;;;;;;;;;9.90;99.90;;;;;;4895396;29;19927;-68
2021/10/14 09:41:24;;;;;;;;;;;10.00;99.90;;;;;;4909563;29;20014;-69
2021/10/14 09:44:15;;;;;;;;;;;10.00;99.90;;;;;;4910130;29;19934;-68
2021/10/14 09:47:10;;;;;;;;;;;9.90;99.90;;;;;;4904212;29;20268;-68
2021/10/14 09:50:05;;;;;;;;;;;10.00;99.90;;;;;;4913499;29;20240;-67
2021/10/14 09:52:54;;;;;;;;;;;10.00;99.90;;;;;;4910463;29;20494;-68
2021/10/14 09:55:43;;;;;;;;;;;10.00;99.90;;;;;;4899378;29;20017;-68
2021/10/14 09:58:34;;;;;;;;;;;10.10;99.90;;;;;;4909528;29;20029;-67
2021/10/14 10:01:22;;;;;;;;;;;10.10;99.90;;;;;;4902416;29;19931;-68
2021/10/14 10:04:12;;;;;;;;;;;10.20;99.90;;;;;;4916796;29;20058;-68
2021/10/14 10:07:03;;;;;;;;;;;10.20;99.90;;;;;;4902414;29;19928;-68
2021/10/14 10:09:57;;;;;;;;;;;10.20;99.90;;;;;;4913270;29;20602;-68
2021/10/14 10:12:46;;;;;;;;;;;10.20;99.90;;;;;;4916817;29;20014;-67
2021/10/14 10:15:41;;;;;;;;;;;10.30;99.90;;;;;;4910205;29;20396;-68
2021/10/14 10:18:40;;;;;;;;;;;10.30;99.90;;;;;;4902376;29;20011;-67
2021/10/14 10:21:40;;;;;;;;;;;10.40;99.90;;;;;;4911546;29;20277;-67
2021/10/14 10:24:32;;;;;;;;;;;10.40;99.90;;;;;;4910876;29;20065;-67
2021/10/14 10:27:32;;;;;;;;;;;10.50;99.90;;;;;;4903488;29;20101;-68
2021/10/14 10:30:26;;;;;;;;;;;10.50;99.90;;;;;;4906549;29;19950;-68
2021/10/14 10:33:37;;;;;;;;;;;10.50;99.90;;;;;;4916727;29;19939;-69
2021/10/14 10:36:48;;;;;;;;;;;10.50;99.90;;;;;;4916811;29;19962;-68
2021/10/14 10:39:45;;;;;;;;;;;10.60;99.90;;;;;;4917944;29;19935;-68
2021/10/14 10:42:38;;;;;;;;;;;10.60;99.90;;;;;;4919895;29;19958;-68
2021/10/14 10:45:53;;;;;;;;;;;10.60;99.90;;;;;;4915365;29;19928;-68
2021/10/14 10:48:44;;;;;;;;;;;10.60;99.90;;;;;;4922444;29;19964;-68
2021/10/14 10:51:33;;;;;;;;;;;10.70;99.90;;;;;;4907196;29;20276;-69
2021/10/14 10:54:37;;;;;;;;;;;10.70;99.90;;;;;;4902219;29;19938;-68
2021/10/14 10:57:41;;;;;;;;;;;10.80;99.90;;;;;;4902318;29;19933;-68
2021/10/14 11:00:30;;;;;;;;;;;10.80;99.90;;;;;;4914258;29;20299;-68
2021/10/14 11:03:20;;;;;;;;;;;10.80;99.90;;;;;;4912611;29;20299;-68
2021/10/14 11:06:12;;;;;;;;;;;10.90;99.90;;;;;;4913501;29;19936;-68
2021/10/14 11:09:02;;;;;;;;;;;10.90;99.90;;;;;;4907588;29;19938;-68
2021/10/14 11:11:51;;;;;;;;;;;10.90;99.90;;;;;;4912521;29;19934;-69
2021/10/14 11:14:40;;;;;;;;;;;10.90;99.90;;;;;;4913223;29;19942;-68
2021/10/14 11:17:29;;;;;;;;;;;10.90;99.90;;;;;;4901079;29;19927;-68
2021/10/14 11:20:19;;;;;;;;;;;10.90;99.90;;;;;;4914081;29;20055;-68
2021/10/14 11:23:10;;;;;;;;;;;10.90;99.90;;;;;;4914988;29;19927;-68
2021/10/14 11:26:16;;;;;;;;;;;10.90;99.90;;;;;;4903562;29;19933;-69
2021/10/14 11:29:05;;;;;;;;;;;10.90;99.90;;;;;;4916060;29;20022;-69
2021/10/14 11:32:04;;;;;;;;;;;11.00;99.90;;;;;;4909172;29;20024;-68
2021/10/14 11:34:53;;;;;;;;;;;11.00;99.90;;;;;;4902079;29;20428;-68
2021/10/14 11:37:42;;;;;;;;;;;11.10;99.90;;;;;;4897780;29;19935;-68
2021/10/14 11:40:35;;;;;;;;;;;11.20;99.90;;;;;;4901497;29;19934;-68
2021/10/14 11:43:25;;;;;;;;;;;11.20;99.90;;;;;;4909689;29;19927;-68
2021/10/14 11:46:22;;;;;;;;;;;11.20;99.90;;;;;;4904235;29;19927;-68
2021/10/14 11:49:12;;;;;;;;;;;11.30;99.90;;;;;;4902151;29;19949;-68
2021/10/14 11:52:02;;;;;;;;;;;11.30;99.90;;;;;;4915980;29;20018;-68
2021/10/14 11:54:50;;;;;;;;;;;11.30;99.90;;;;;;4901437;29;20264;-68
2021/10/14 11:57:41;;;;;;;;;;;11.50;99.90;;;;;;4899479;29;19943;-68
2021/10/14 12:00:31;;;;;;;;;;;11.50;99.90;;;;;;4910321;29;20261;-68
2021/10/14 12:03:20;;;;;;;;;;;11.50;99.90;;;;;;4911914;29;19927;-68
2021/10/14 12:06:09;;;;;;;;;;;11.50;99.90;;;;;;4915819;29;19927;-68
2021/10/14 12:08:58;;;;;;;;;;;11.50;99.90;;;;;;4915873;28;19934;-68
2021/10/14 12:11:47;;;;;;;;;;;11.50;99.90;;;;;;4901036;29;19942;-68
2021/10/14 12:14:38;;;;;;;;;;;11.60;99.90;;;;;;4897647;29;19927;-68
2021/10/14 12:17:37;;;;;;;;;;;11.50;99.90;;;;;;4900453;29;19935;-68
2021/10/14 12:20:26;;;;;;;;;;;11.50;99.90;;;;;;4918536;29;20041;-70
2021/10/14 12:23:15;;;;;;;;;;;11.50;99.90;;;;;;4898809;29;20376;-68
2021/10/14 12:26:11;;;;;;;;;;;11.50;99.90;;;;;;4913158;29;20051;-68
2021/10/14 12:29:14;;;;;;;;;;;11.50;99.90;;;;;;4914663;29;19950;-68
2021/10/14 12:32:14;;;;;;;;;;;11.50;99.90;;;;;;4909038;29;19938;-68
2021/10/14 12:35:03;;;;;;;;;;;11.60;99.90;;;;;;4909351;29;20279;-68
2021/10/14 12:38:03;;;;;;;;;;;11.60;99.90;;;;;;4912889;29;20279;-68
2021/10/14 12:41:01;;;;;;;;;;;11.70;99.90;;;;;;4915875;28;19937;-68
2021/10/14 12:43:54;;;;;;;;;;;11.80;99.90;;;;;;4914375;29;20272;-69
2021/10/14 12:46:52;;;;;;;;;;;11.70;99.90;;;;;;4903486;29;19927;-68
2021/10/14 12:50:12;;;;;;;;;;;11.70;99.90;;;;;;4899614;29;19938;-68
2021/10/14 12:53:16;;;;;;;;;;;11.70;99.90;;;;;;4914208;29;19974;-68
2021/10/14 12:56:08;;;;;;;;;;;11.70;99.90;;;;;;4912118;29;19950;-68
2021/10/14 12:59:03;;;;;;;;;;;11.80;99.90;;;;;;4909220;29;19935;-68
2021/10/14 13:01:56;;;;;;;;;;;11.70;99.90;;;;;;4905787;29;20292;-68
2021/10/14 13:04:45;;;;;;;;;;;11.70;99.90;;;;;;4900538;29;19928;-69
2021/10/14 13:07:35;;;;;;;;;;;11.70;99.90;;;;;;4918152;29;19927;-70
2021/10/14 13:10:24;;;;;;;;;;;11.70;99.90;;;;;;4915433;29;19927;-70
2021/10/14 13:13:13;;;;;;;;;;;11.70;99.90;;;;;;4913145;29;20315;-71
2021/10/14 13:16:06;;;;;;;;;;;11.70;99.90;;;;;;4897238;29;19934;-71
2021/10/14 13:18:55;;;;;;;;;;;11.70;99.90;;;;;;4915644;29;19927;-70
2021/10/14 13:22:09;;;;;;;;;;;11.70;99.90;;;;;;4915092;29;19934;-70
2021/10/14 13:25:00;;;;;;;;;;;11.80;99.90;;;;;;4915250;29;19931;-70
2021/10/14 13:27:51;;;;;;;;;;;11.80;99.90;;;;;;4909617;29;19927;-70
2021/10/14 13:30:40;;;;;;;;;;;11.80;99.90;;;;;;4907073;29;19938;-70
2021/10/14 13:33:29;;;;;;;;;;;11.80;99.90;;;;;;4894933;29;19931;-70
2021/10/14 13:36:19;;;;;;;;;;;11.80;99.90;;;;;;4914255;29;19938;-70
2021/10/14 13:39:13;;;;;;;;;;;11.70;99.90;;;;;;4917374;29;20041;-69
2021/10/14 13:42:06;;;;;;;;;;;11.80;99.90;;;;;;4914970;29;19938;-68
2021/10/14 13:44:54;;;;;;;;;;;11.70;99.90;;;;;;4918449;29;20127;-68
2021/10/14 13:47:48;;;;;;;;;;;11.80;99.90;;;;;;4914853;29;19931;-68
2021/10/14 13:50:37;;;;;;;;;;;11.80;99.90;;;;;;4900022;29;19942;-68
2021/10/14 13:53:27;;;;;;;;;;;11.80;99.90;;;;;;4914800;29;20014;-69
2021/10/14 13:56:16;;;;;;;;;;;11.80;99.90;;;;;;4917881;29;19927;-68
2021/10/14 13:59:06;;;;;;;;;;;11.80;99.90;;;;;;4909086;29;19946;-68
2021/10/14 14:01:55;;;;;;;;;;;11.80;99.90;;;;;;4898655;29;19927;-67
2021/10/14 14:04:44;;;;;;;;;;;11.80;99.90;;;;;;4904141;29;19927;-69
2021/10/14 14:07:33;;;;;;;;;;;11.70;99.90;;;;;;4917571;29;19942;-68
2021/10/14 14:10:25;;;;;;;;;;;11.60;99.90;;;;;;4917528;29;20018;-68
2021/10/14 14:13:14;;;;;;;;;;;11.60;99.90;;;;;;4915401;29;19927;-68
2021/10/14 14:16:08;;;;;;;;;;;11.60;99.90;;;;;;4904622;29;20120;-68
2021/10/14 14:18:57;;;;;;;;;;;11.60;99.90;;;;;;4912209;29;19927;-68
2021/10/14 14:21:48;;;;;;;;;;;11.50;99.90;;;;;;4913280;29;20030;-67
2021/10/14 14:24:37;;;;;;;;;;;11.50;99.90;;;;;;4909078;29;20082;-68
2021/10/14 14:27:26;;;;;;;;;;;11.50;99.90;;;;;;4903451;28;19935;-68
2021/10/14 14:30:15;;;;;;;;;;;11.60;99.90;;;;;;4917358;28;20026;-68
2021/10/14 14:33:08;;;;;;;;;;;11.60;99.90;;;;;;4919543;29;20344;-68
2021/10/14 14:35:58;;;;;;;;;;;11.60;99.90;;;;;;4898746;29;19927;-68
2021/10/14 14:38:50;;;;;;;;;;;11.60;99.90;;;;;;4919396;28;19931;-68
2021/10/14 14:41:40;;;;;;;;;;;11.60;99.90;;;;;;4897902;29;19938;-67
2021/10/14 14:44:28;;;;;;;;;;;11.50;99.90;;;;;;4918068;29;20014;-68
2021/10/14 14:47:20;;;;;;;;;;;11.50;99.90;;;;;;4908620;29;19931;-68
2021/10/14 14:50:20;;;;;;;;;;;11.50;99.90;;;;;;4916952;29;19936;-67
2021/10/14 14:53:10;;;;;;;;;;;11.40;99.90;;;;;;4916595;29;19931;-68
2021/10/14 14:56:00;;;;;;;;;;;11.40;99.90;;;;;;4916343;29;20359;-67
2021/10/14 14:58:48;;;;;;;;;;;11.40;99.90;;;;;;4917808;28;20261;-67
2021/10/14 15:01:40;;;;;;;;;;;11.40;99.90;;;;;;4909281;29;19935;-67
2021/10/14 15:04:29;;;;;;;;;;;11.30;99.90;;;;;;4907792;29;19934;-68
2021/10/14 15:07:41;;;;;;;;;;;11.40;99.90;;;;;;4915567;29;19938;-68
2021/10/14 15:10:30;;;;;;;;;;;11.30;99.90;;;;;;4911961;29;19935;-67
2021/10/14 15:13:19;;;;;;;;;;;11.30;99.90;;;;;;4913636;29;20005;-67
2021/10/14 15:16:08;;;;;;;;;;;11.30;99.90;;;;;;4892959;29;19927;-67
2021/10/14 15:18:57;;;;;;;;;;;11.30;99.90;;;;;;4914687;29;20029;-67
2021/10/14 15:21:49;;;;;;;;;;;11.30;99.90;;;;;;4896631;29;19960;-67
2021/10/14 15:24:40;;;;;;;;;;;11.30;99.90;;;;;;4917663;28;19935;-67
2021/10/14 15:27:29;;;;;;;;;;;11.30;99.90;;;;;;4901576;29;19937;-67
2021/10/14 15:30:21;;;;;;;;;;;11.30;99.90;;;;;;4909887;29;20464;-67
2021/10/14 15:33:10;;;;;;;;;;;11.30;99.90;;;;;;4913530;29;19953;-67
2021/10/14 15:35:59;;;;;;;;;;;11.30;99.90;;;;;;4900323;29;19935;-67
2021/10/14 15:38:49;;;;;;;;;;;11.30;99.90;;;;;;4912919;29;19962;-67
2021/10/14 15:41:40;;;;;;;;;;;11.30;99.90;;;;;;4911409;29;19931;-67
2021/10/14 15:44:29;;;;;;;;;;;11.30;99.90;;;;;;4914290;29;19933;-67
2021/10/14 15:47:18;;;;;;;;;;;11.30;99.90;;;;;;4908993;29;20332;-67
2021/10/14 15:50:08;;;;;;;;;;;11.30;99.90;;;;;;4916372;29;19927;-67
2021/10/14 15:52:57;;;;;;;;;;;11.30;99.90;;;;;;4917597;29;19927;-68
2021/10/14 15:55:46;;;;;;;;;;;11.30;99.90;;;;;;4898414;29;19927;-67
2021/10/14 15:58:37;;;;;;;;;;;11.30;99.90;;;;;;4915731;29;19927;-67
2021/10/14 16:01:26;;;;;;;;;;;11.40;99.90;;;;;;4912855;28;19931;-67
2021/10/14 16:04:15;;;;;;;;;;;11.40;99.90;;;;;;4915607;29;20277;-68
2021/10/14 16:07:28;;;;;;;;;;;11.40;99.90;;;;;;4913616;29;19975;-68
2021/10/14 16:10:17;;;;;;;;;;;11.40;99.90;;;;;;4911021;29;20371;-67
2021/10/14 16:13:06;;;;;;;;;;;11.30;99.90;;;;;;4914016;29;20319;-66
2021/10/14 16:15:56;;;;;;;;;;;11.30;99.90;;;;;;4910462;29;20369;-67
2021/10/14 16:18:46;;;;;;;;;;;11.30;99.90;;;;;;4899355;29;20031;-67
2021/10/14 16:21:34;;;;;;;;;;;11.30;99.90;;;;;;4916213;29;19933;-67
2021/10/14 16:24:23;;;;;;;;;;;11.30;99.90;;;;;;4913276;28;19931;-66
2021/10/14 16:30:27;;;;;;;;;;;11.40;99.90;;;;;;4907090;29;19934;-67
2021/10/14 16:33:32;;;;;;;;;;;11.40;99.90;;;;;;4916855;29;19962;-67
2021/10/14 16:36:21;;;;;;;;;;;11.40;99.90;;;;;;4915123;29;19937;-67
2021/10/14 16:39:11;;;;;;;;;;;11.40;99.90;;;;;;4902934;28;19927;-68
2021/10/14 16:42:00;;;;;;;;;;;11.40;99.90;;;;;;4913895;29;19927;-68
2021/10/14 16:44:48;;;;;;;;;;;11.40;99.90;;;;;;4912678;29;19927;-67
2021/10/14 16:47:39;;;;;;;;;;;11.40;99.90;;;;;;4918226;28;20240;-68
2021/10/14 16:50:31;;;;;;;;;;;11.40;99.90;;;;;;4916485;29;19951;-69
2021/10/14 16:53:20;;;;;;;;;;;11.40;99.90;;;;;;4915939;29;19937;-68
2021/10/14 16:56:10;;;;;;;;;;;11.40;99.90;;;;;;4915722;29;20487;-67
2021/10/14 16:58:59;;;;;;;;;;;11.40;99.90;;;;;;4913099;29;19935;-67
2021/10/14 17:01:48;;;;;;;;;;;11.50;99.90;;;;;;4909580;29;20038;-67
2021/10/14 17:04:39;;;;;;;;;;;11.50;99.90;;;;;;4910287;29;19983;-67
2021/10/14 17:07:29;;;;;;;;;;;11.50;99.90;;;;;;4914096;29;19927;-67